Time;durP1;ratioP1;P1;durP2;ratioP2;P2;SDS_P1;SDS_P2;PMS_P1;PMS_P2;Temp;Humidity;BMP_temperature;BMP_pressure;BME280_temperature;BME280_humidity;BME280_pressure;Samples;Min_cycle;Max_cycle;Signal;HPM_P1;HPM_P2
2021/08/08 00:01:08;;;;;;;14.25;8.68;;;;;;;17.25;74.39;100334.88;1773697;80;21106;-89
2021/08/08 00:03:35;;;;;;;11.05;9.23;;;;;;;17.21;74.40;100338.88;1763956;80;21673;-89
2021/08/08 00:06:01;;;;;;;12.03;8.55;;;;;;;17.17;74.47;100337.16;1765997;80;21011;-89
2021/08/08 00:08:30;;;;;;;13.88;8.85;;;;;;;17.13;74.54;100336.30;1764356;80;21952;-89
2021/08/08 00:10:56;;;;;;;11.25;8.30;;;;;;;17.10;74.54;100331.02;1771647;80;21038;-89
2021/08/08 00:13:23;;;;;;;12.40;8.58;;;;;;;17.07;74.62;100321.27;1775817;79;21098;-88
2021/08/08 00:15:49;;;;;;;11.48;9.08;;;;;;;17.05;74.67;100324.85;1770605;80;21461;-90
2021/08/08 00:18:16;;;;;;;11.45;8.00;;;;;;;17.01;74.71;100333.75;1776264;79;21035;-89
2021/08/08 00:20:43;;;;;;;14.10;8.85;;;;;;;16.97;74.74;100337.30;1773241;80;21728;-89
2021/08/08 00:23:10;;;;;;;12.58;8.08;;;;;;;16.92;74.79;100325.84;1774983;79;21046;-90
2021/08/08 00:25:37;;;;;;;12.82;8.75;;;;;;;16.87;74.89;100328.10;1773416;80;21000;-89
2021/08/08 00:28:05;;;;;;;12.68;8.60;;;;;;;16.85;75.03;100330.31;1766856;80;21530;-88
2021/08/08 00:30:32;;;;;;;14.43;8.68;;;;;;;16.83;75.16;100322.34;1772756;80;20988;-88
2021/08/08 00:32:58;;;;;;;13.48;8.83;;;;;;;16.82;75.30;100316.61;1775487;80;22747;-89
2021/08/08 00:35:25;;;;;;;13.68;8.25;;;;;;;16.82;75.34;100313.95;1761099;80;21098;-89
2021/08/08 00:37:52;;;;;;;14.90;8.35;;;;;;;16.83;75.41;100305.53;1768637;81;21066;-89
2021/08/08 00:40:19;;;;;;;17.90;9.13;;;;;;;16.82;75.48;100308.64;1775855;80;21043;-88
2021/08/08 00:42:46;;;;;;;14.95;9.13;;;;;;;16.82;75.55;100312.63;1769305;80;21066;-89
2021/08/08 00:45:15;;;;;;;11.08;8.23;;;;;;;16.82;75.64;100312.63;1768119;80;21748;-89
2021/08/08 00:47:42;;;;;;;13.60;8.63;;;;;;;16.83;75.74;100310.38;1780566;80;21551;-89
2021/08/08 00:50:10;;;;;;;17.65;8.20;;;;;;;16.84;75.77;100304.19;1768281;80;21551;-88
2021/08/08 00:52:36;;;;;;;12.68;8.20;;;;;;;16.87;75.86;100305.50;1772006;79;21030;-89
2021/08/08 00:55:04;;;;;;;11.35;8.98;;;;;;;16.90;75.92;100296.61;1779634;80;21041;-89
2021/08/08 00:57:31;;;;;;;16.15;8.75;;;;;;;16.91;75.94;100306.33;1783190;80;21729;-89
2021/08/08 00:59:57;;;;;;;12.03;8.85;;;;;;;16.96;76.03;100303.66;1784362;80;21022;-89
2021/08/08 01:02:24;;;;;;;12.13;8.58;;;;;;;16.98;76.01;100297.42;1784882;80;21006;-89
2021/08/08 01:04:55;;;;;;;10.30;8.10;;;;;;;16.99;76.06;100281.91;1775111;80;21536;-89
2021/08/08 01:07:27;;;;;;;18.35;9.65;;;;;;;17.02;76.05;100288.97;1762599;80;21559;-90
2021/08/08 01:09:55;;;;;;;12.90;8.43;;;;;;;17.04;76.05;100291.16;1783608;80;21750;-89
2021/08/08 01:12:21;;;;;;;13.32;9.23;;;;;;;17.05;76.08;100289.83;1782260;79;21096;-88
2021/08/08 01:14:48;;;;;;;16.25;9.35;;;;;;;17.07;76.07;100292.02;1784901;80;21496;-89
2021/08/08 01:17:15;;;;;;;15.55;8.68;;;;;;;17.09;76.05;100293.34;1784321;80;21531;-89
2021/08/08 01:19:53;;;;;;;15.98;9.18;;;;;;;17.10;76.03;100288.02;1784487;80;21574;-89
2021/08/08 01:22:20;;;;;;;13.03;8.63;;;;;;;17.10;76.03;100288.47;1784918;80;21774;-88
2021/08/08 01:24:47;;;;;;;17.35;9.40;;;;;;;17.12;76.02;100293.75;1784798;80;21965;-88
2021/08/08 01:27:14;;;;;;;13.60;9.50;;;;;;;17.12;76.05;100297.31;1765363;80;21000;-88
2021/08/08 01:29:40;;;;;;;13.20;9.23;;;;;;;17.10;75.99;100290.67;1766762;80;21106;-88
2021/08/08 01:32:07;;;;;;;11.35;9.50;;;;;;;17.08;75.95;100292.92;1784449;80;21053;-87
2021/08/08 01:34:35;;;;;;;14.73;10.00;;;;;;;17.04;75.98;100296.48;1770730;80;21690;-88
2021/08/08 01:37:02;;;;;;;13.25;9.58;;;;;;;17.01;76.00;100292.55;1710616;81;21572;-89
2021/08/08 01:39:29;;;;;;;14.87;9.60;;;;;;;16.99;76.06;100285.03;1765188;81;21142;-88
2021/08/08 01:41:57;;;;;;;12.37;9.30;;;;;;;16.98;76.08;100288.57;1768992;80;21063;-88
2021/08/08 01:44:25;;;;;;;16.57;9.65;;;;;;;16.96;76.11;100284.59;1765198;80;21083;-88
2021/08/08 01:46:57;;;;;;;13.55;9.45;;;;;;;16.95;76.15;100275.29;1782120;80;21758;-88
2021/08/08 01:49:27;;;;;;;12.18;9.00;;;;;;;16.93;76.19;100271.77;1784243;79;21047;-88
2021/08/08 01:51:54;;;;;;;11.97;9.00;;;;;;;16.93;76.26;100266.45;1783216;79;21046;-88
2021/08/08 01:54:21;;;;;;;17.42;9.88;;;;;;;16.93;76.31;100265.13;1784309;79;21062;-88
2021/08/08 01:56:47;;;;;;;14.78;9.35;;;;;;;16.93;76.38;100267.78;1770119;80;21069;-88
2021/08/08 01:59:14;;;;;;;12.05;8.83;;;;;;;16.96;76.43;100267.77;1767743;79;21864;-88
2021/08/08 02:01:42;;;;;;;13.45;9.03;;;;;;;16.98;76.47;100272.16;1766625;80;21533;-87
2021/08/08 02:04:22;;;;;;;11.10;8.35;;;;;;;17.00;76.50;100274.36;1781886;80;33965;-88
2021/08/08 02:06:49;;;;;;;10.00;8.43;;;;;;;17.02;76.48;100274.34;1766833;80;21341;-88
2021/08/08 02:09:15;;;;;;;12.13;8.35;;;;;;;17.05;76.54;100280.52;1765230;81;21058;-87
2021/08/08 02:11:42;;;;;;;12.80;9.38;;;;;;;17.07;76.53;100283.17;1767016;80;21774;-88
2021/08/08 02:14:09;;;;;;;11.18;8.80;;;;;;;17.10;76.53;100280.50;1782382;80;21026;-88
2021/08/08 02:16:35;;;;;;;12.03;8.25;;;;;;;17.12;76.51;100281.36;1784736;80;21066;-88
2021/08/08 02:19:02;;;;;;;10.48;8.18;;;;;;;17.16;76.50;100291.52;1767536;80;21008;-87
2021/08/08 02:21:29;;;;;;;12.25;8.78;;;;;;;17.17;76.47;100291.94;1765415;81;21537;-88
2021/08/08 02:23:55;;;;;;;12.15;8.60;;;;;;;17.20;76.50;100291.92;1784171;80;21782;-88
2021/08/08 02:26:22;;;;;;;12.90;8.08;;;;;;;17.23;76.47;100303.84;1784434;80;20992;-87
2021/08/08 02:28:49;;;;;;;11.18;7.37;;;;;;;17.24;76.51;100302.50;1774693;80;21006;-88
2021/08/08 02:31:18;;;;;;;9.23;7.65;;;;;;;17.28;76.53;100311.34;1784598;80;22081;-88
2021/08/08 02:33:46;;;;;;;12.20;7.42;;;;;;;17.31;76.50;100311.78;1771980;80;21490;-88
2021/08/08 02:36:12;;;;;;;8.95;7.28;;;;;;;17.33;76.49;100306.86;1766598;80;21766;-88
2021/08/08 02:38:39;;;;;;;11.30;7.12;;;;;;;17.37;76.53;100310.38;1759665;79;21031;-88
2021/08/08 02:41:08;;;;;;;8.63;7.47;;;;;;;17.40;76.51;100314.31;1782077;80;21041;-88
2021/08/08 02:43:35;;;;;;;9.65;7.83;;;;;;;17.43;76.52;100312.97;1768185;80;20976;-88
2021/08/08 02:46:02;;;;;;;9.03;6.65;;;;;;;17.45;76.42;100316.49;1765413;81;21087;-88
2021/08/08 02:48:29;;;;;;;9.45;7.75;;;;;;;17.48;76.38;100313.35;1765654;80;21829;-88
2021/08/08 02:50:55;;;;;;;9.85;6.67;;;;;;;17.49;76.34;100305.81;1765344;80;21087;-88
2021/08/08 02:53:22;;;;;;;7.67;6.62;;;;;;;17.54;76.21;100307.55;1774684;80;21079;-88
2021/08/08 02:55:49;;;;;;;8.65;6.95;;;;;;;17.55;76.18;100299.55;1782172;80;21033;-88
2021/08/08 02:58:16;;;;;;;7.08;5.72;;;;;;;17.57;76.12;100299.50;1769478;80;21027;-88
2021/08/08 03:00:43;;;;;;;15.08;6.15;;;;;;;17.59;76.06;100296.41;1773434;80;22550;-88
2021/08/08 03:03:09;;;;;;;7.58;6.40;;;;;;;17.60;75.96;100297.69;1767045;79;21028;-89
2021/08/08 03:05:36;;;;;;;9.38;7.08;;;;;;;17.63;75.95;100287.48;1765493;81;21043;-88
2021/08/08 03:08:04;;;;;;;9.65;6.17;;;;;;;17.67;75.90;100287.42;1766989;80;21003;-88
2021/08/08 03:10:30;;;;;;;8.00;6.15;;;;;;;17.69;75.84;100288.27;1765525;81;21015;-87
2021/08/08 03:12:57;;;;;;;7.90;6.28;;;;;;;17.71;75.72;100285.60;1784486;80;22555;-89
2021/08/08 03:15:23;;;;;;;9.53;6.25;;;;;;;17.73;75.65;100288.25;1784590;79;21555;-88
2021/08/08 03:17:50;;;;;;;6.35;5.45;;;;;;;17.75;75.59;100287.78;1770086;80;21031;-88
2021/08/08 03:20:20;;;;;;;11.05;5.83;;;;;;;17.75;75.54;100294.44;1769409;79;20992;-88
2021/08/08 03:22:46;;;;;;;7.12;5.87;;;;;;;17.75;75.50;100294.44;1781535;80;21034;-88
2021/08/08 03:25:13;;;;;;;8.68;6.15;;;;;;;17.74;75.48;100294.89;1783431;80;21931;-88
2021/08/08 03:27:39;;;;;;;6.75;6.05;;;;;;;17.75;75.38;100305.08;1784605;80;21081;-87
2021/08/08 03:30:07;;;;;;;7.58;5.47;;;;;;;17.76;75.43;100314.84;1784582;80;21058;-88
2021/08/08 03:32:35;;;;;;;6.60;6.00;;;;;;;17.77;75.43;100313.94;1784608;80;21548;-87
2021/08/08 03:35:01;;;;;;;6.87;6.00;;;;;;;17.78;75.48;100319.24;1784781;79;21046;-87
2021/08/08 03:37:28;;;;;;;9.53;5.53;;;;;;;17.79;75.44;100326.34;1766499;80;21733;-87
2021/08/08 03:39:55;;;;;;;11.68;5.53;;;;;;;17.78;75.42;100324.56;1775959;80;21133;-87
2021/08/08 03:42:22;;;;;;;7.17;5.75;;;;;;;17.79;75.44;100324.11;1775514;79;21044;-87
2021/08/08 03:44:50;;;;;;;8.90;6.03;;;;;;;17.78;75.44;100321.91;1762069;80;21027;-88
2021/08/08 03:47:19;;;;;;;7.20;5.72;;;;;;;17.79;75.48;100319.69;1770087;80;21035;-87
2021/08/08 03:49:46;;;;;;;7.90;5.28;;;;;;;17.81;75.50;100326.30;1763938;80;22633;-87
2021/08/08 03:52:13;;;;;;;9.98;5.72;;;;;;;17.79;75.35;100324.11;1768931;80;20960;-88
2021/08/08 03:54:39;;;;;;;7.35;5.25;;;;;;;17.80;75.40;100319.23;1775802;80;21026;-88
2021/08/08 03:57:06;;;;;;;7.05;5.30;;;;;;;17.81;75.32;100321.88;1770998;79;21030;-88
2021/08/08 03:59:36;;;;;;;6.42;5.00;;;;;;;17.82;75.35;100324.09;1777319;79;21081;-88
2021/08/08 04:02:03;;;;;;;10.93;4.72;;;;;;;17.84;75.28;100328.94;1775253;79;21822;-88
2021/08/08 04:04:29;;;;;;;7.53;5.05;;;;;;;17.86;75.32;100330.70;1784251;80;21073;-88
2021/08/08 04:06:56;;;;;;;7.87;4.85;;;;;;;17.87;75.33;100324.50;1769233;80;21101;-88
2021/08/08 04:09:23;;;;;;;6.28;4.40;;;;;;;17.87;75.28;100328.48;1772600;80;21238;-88
2021/08/08 04:11:50;;;;;;;5.20;4.47;;;;;;;17.88;75.26;100324.04;1785014;79;21006;-89
2021/08/08 04:14:17;;;;;;;7.15;4.58;;;;;;;17.90;75.14;100336.01;1769564;80;21719;-88
2021/08/08 04:16:43;;;;;;;7.20;3.72;;;;;;;17.92;75.21;100336.87;1765378;81;21070;-89
2021/08/08 04:19:10;;;;;;;5.08;3.92;;;;;;;17.90;75.14;100336.01;1764088;81;21623;-88
2021/08/08 04:21:37;;;;;;;5.28;3.90;;;;;;;17.94;75.17;100344.39;1765326;81;21043;-88
2021/08/08 04:24:04;;;;;;;6.30;4.08;;;;;;;17.95;75.15;100347.03;1761145;81;21023;-88
2021/08/08 04:26:31;;;;;;;4.85;3.70;;;;;;;17.97;75.18;100349.23;1779598;80;21791;-87
2021/08/08 04:28:58;;;;;;;4.47;3.47;;;;;;;17.98;74.95;100355.42;1768940;80;20991;-87
2021/08/08 04:31:24;;;;;;;4.15;2.87;;;;;;;17.98;74.86;100366.08;1779737;80;21035;-88
2021/08/08 04:33:51;;;;;;;9.50;3.15;;;;;;;17.99;74.75;100382.50;1777240;79;21090;-88
2021/08/08 04:36:17;;;;;;;3.35;2.75;;;;;;;17.97;74.63;100377.19;1779491;79;21496;-87
2021/08/08 04:38:44;;;;;;;6.12;2.92;;;;;;;17.98;74.61;100380.30;1785028;79;21767;-88
2021/08/08 04:41:11;;;;;;;4.65;3.20;;;;;;;18.00;74.62;100385.58;1784406;79;21603;-88
2021/08/08 04:43:38;;;;;;;5.58;2.92;;;;;;;18.01;74.64;100380.24;1784504;80;20996;-88
2021/08/08 04:46:04;;;;;;;3.40;2.60;;;;;;;18.03;74.65;100381.56;1784656;80;21527;-87
2021/08/08 04:48:31;;;;;;;5.35;2.90;;;;;;;18.06;74.66;100377.55;1768665;80;21020;-88
2021/08/08 04:50:58;;;;;;;4.67;3.47;;;;;;;18.06;74.63;100366.89;1767093;80;21780;-88
2021/08/08 04:53:24;;;;;;;5.42;2.67;;;;;;;18.06;74.52;100361.56;1779960;80;21118;-88
2021/08/08 04:55:51;;;;;;;5.58;3.45;;;;;;;18.03;74.46;100366.45;1770463;80;21050;-88
2021/08/08 04:58:18;;;;;;;4.28;3.20;;;;;;;18.02;74.59;100366.05;1779940;80;21023;-89
2021/08/08 05:00:44;;;;;;;6.15;3.00;;;;;;;18.02;74.61;100366.05;1784561;80;21003;-88
2021/08/08 05:03:11;;;;;;;4.92;3.17;;;;;;;18.03;74.72;100366.45;1784600;80;22548;-88
2021/08/08 05:05:38;;;;;;;8.68;3.60;;;;;;;18.03;74.72;100362.92;1784406;79;21061;-88
2021/08/08 05:08:04;;;;;;;4.47;2.87;;;;;;;18.04;74.83;100366.03;1769699;80;20983;-88
2021/08/08 05:10:31;;;;;;;7.70;3.35;;;;;;;18.05;74.88;100369.11;1777667;79;21074;-88
2021/08/08 05:12:58;;;;;;;7.95;3.58;;;;;;;18.06;74.97;100370.42;1784001;80;21014;-88
2021/08/08 05:15:25;;;;;;;6.83;3.50;;;;;;;18.08;75.06;100368.21;1783133;79;21784;-87
2021/08/08 05:17:52;;;;;;;5.15;3.08;;;;;;;18.09;75.20;100373.49;1768871;80;21612;-88
2021/08/08 05:20:18;;;;;;;5.75;3.12;;;;;;;18.11;75.23;100374.81;1765156;81;21663;-88
2021/08/08 05:22:45;;;;;;;3.80;2.67;;;;;;;18.11;75.19;100369.02;1765238;81;21058;-87
2021/08/08 05:25:12;;;;;;;3.87;2.67;;;;;;;18.12;75.23;100369.47;1765269;81;21072;-88
2021/08/08 05:27:39;;;;;;;5.60;3.52;;;;;;;18.13;75.29;100365.02;1765369;81;21755;-87
2021/08/08 05:30:08;;;;;;;6.20;3.52;;;;;;;18.15;75.44;100365.87;1766776;80;21549;-88
2021/08/08 05:32:36;;;;;;;4.87;3.85;;;;;;;18.16;75.48;100367.66;1766945;80;21009;-88
2021/08/08 05:35:04;;;;;;;5.65;3.60;;;;;;;18.16;75.62;100369.86;1777293;80;21112;-88
2021/08/08 05:37:30;;;;;;;4.05;3.30;;;;;;;18.19;75.73;100358.31;1784582;80;21552;-87
2021/08/08 05:40:04;;;;;;;3.37;3.00;;;;;;;18.25;75.87;100359.55;1780530;80;21990;-87
2021/08/08 05:42:26;;;;;;;6.12;3.20;;;;;;;18.31;75.90;100352.80;1767847;79;21058;-88
2021/08/08 05:44:52;;;;;;;4.22;3.02;;;;;;;18.36;75.79;100350.09;1769324;80;21105;-88
2021/08/08 05:47:19;;;;;;;4.28;3.17;;;;;;;18.38;75.51;100345.63;1765056;80;21047;-88
2021/08/08 05:49:46;;;;;;;7.78;3.25;;;;;;;18.40;75.40;100352.68;1763400;80;21583;-87
2021/08/08 05:52:13;;;;;;;5.42;2.77;;;;;;;18.42;75.45;100357.53;1765234;80;21964;-87
2021/08/08 05:54:39;;;;;;;9.33;3.33;;;;;;;18.44;75.52;100363.72;1783929;80;22244;-88
2021/08/08 05:57:06;;;;;;;7.12;3.35;;;;;;;18.48;75.48;100357.91;1776071;80;21109;-88
2021/08/08 05:59:33;;;;;;;7.08;2.87;;;;;;;18.51;75.42;100362.33;1768623;79;21512;-88
2021/08/08 06:01:59;;;;;;;4.75;3.08;;;;;;;18.53;75.44;100360.06;1781721;80;21035;-88
2021/08/08 06:04:26;;;;;;;3.60;2.90;;;;;;;18.55;75.30;100358.25;1784453;80;22056;-87
2021/08/08 06:06:53;;;;;;;4.22;2.90;;;;;;;18.57;75.41;100362.23;1774910;80;21497;-88
2021/08/08 06:09:20;;;;;;;4.85;3.25;;;;;;;18.59;75.43;100369.30;1784749;80;21022;-87
2021/08/08 06:11:47;;;;;;;5.53;2.60;;;;;;;18.62;75.38;100379.05;1784487;80;21069;-88
2021/08/08 06:14:13;;;;;;;7.00;3.15;;;;;;;18.59;75.29;100375.09;1784368;80;21077;-88
2021/08/08 06:16:40;;;;;;;3.80;2.45;;;;;;;18.55;75.28;100376.04;1765945;80;21809;-87
2021/08/08 06:19:07;;;;;;;5.22;3.20;;;;;;;18.52;75.32;100378.73;1776680;80;21267;-88
2021/08/08 06:21:34;;;;;;;5.35;3.37;;;;;;;18.51;75.34;100374.33;1766598;80;21044;-88
2021/08/08 06:24:00;;;;;;;4.92;2.85;;;;;;;18.51;75.52;100372.98;1759305;80;21251;-87
2021/08/08 06:26:27;;;;;;;3.45;2.80;;;;;;;18.54;75.57;100370.27;1782219;80;21058;-88
2021/08/08 06:28:55;;;;;;;4.75;3.35;;;;;;;18.58;75.66;100366.22;1772077;80;21917;-87
2021/08/08 06:31:22;;;;;;;9.50;4.20;;;;;;;18.63;75.66;100368.34;1764976;80;21011;-88
2021/08/08 06:33:49;;;;;;;7.35;4.12;;;;;;;18.66;75.61;100370.10;1765078;80;21608;-88
2021/08/08 06:36:15;;;;;;;5.50;3.20;;;;;;;18.69;75.68;100371.83;1783987;80;21022;-88
2021/08/08 06:38:42;;;;;;;3.90;2.77;;;;;;;18.74;75.69;100371.32;1784633;80;21105;-88
2021/08/08 06:41:08;;;;;;;5.65;2.95;;;;;;;18.79;75.66;100372.14;1771977;80;21758;-87
2021/08/08 06:43:35;;;;;;;5.12;2.85;;;;;;;18.86;75.70;100377.82;1781361;80;21014;-87
2021/08/08 06:46:02;;;;;;;5.95;2.80;;;;;;;18.92;75.67;100384.84;1784337;80;21022;-88
2021/08/08 06:48:34;;;;;;;5.95;2.75;;;;;;;18.99;75.69;100375.85;1776814;80;21027;-88
2021/08/08 06:50:57;;;;;;;4.10;2.47;;;;;;;19.10;75.62;100377.02;1776050;79;21524;-87
2021/08/08 06:53:24;;;;;;;4.58;2.20;;;;;;;19.19;75.56;100383.55;1776194;79;21777;-88
2021/08/08 06:55:51;;;;;;;3.37;2.45;;;;;;;19.30;75.55;100394.05;1773321;80;21023;-88
2021/08/08 06:58:17;;;;;;;3.77;2.40;;;;;;;19.32;75.20;100406.45;1776182;79;21042;-88
2021/08/08 07:00:44;;;;;;;5.55;2.65;;;;;;;19.31;75.07;100411.81;1785265;79;21199;-88
2021/08/08 07:03:11;;;;;;;5.83;2.52;;;;;;;19.25;74.96;100415.45;1782136;80;21058;-88
2021/08/08 07:05:38;;;;;;;5.97;2.75;;;;;;;19.19;74.94;100414.23;1782211;80;21858;-86
2021/08/08 07:08:07;;;;;;;4.58;2.47;;;;;;;19.16;75.08;100413.84;1776042;80;21551;-88
2021/08/08 07:10:33;;;;;;;5.40;4.12;;;;;;;19.14;75.24;100414.28;1772903;80;21031;-88
2021/08/08 07:13:00;;;;;;;4.53;3.55;;;;;;;19.16;75.28;100407.59;1781416;79;21047;-88
2021/08/08 07:15:27;;;;;;;4.05;2.92;;;;;;;19.20;75.34;100398.20;1784573;80;21611;-88
2021/08/08 07:17:54;;;;;;;4.97;2.75;;;;;;;19.34;75.41;100403.77;1784744;80;21754;-88
2021/08/08 07:20:21;;;;;;;3.12;2.30;;;;;;;19.53;75.40;100404.33;1784742;80;21026;-88
2021/08/08 07:22:48;;;;;;;3.75;2.17;;;;;;;19.70;75.35;100403.56;1782606;80;21628;-88
2021/08/08 07:25:14;;;;;;;6.08;2.33;;;;;;;19.81;75.10;100408.28;1775420;80;21505;-88
2021/08/08 07:27:41;;;;;;;4.90;2.17;;;;;;;19.88;74.92;100418.42;1777735;80;21066;-87
2021/08/08 07:30:09;;;;;;;6.75;2.85;;;;;;;19.93;74.79;100419.22;1763193;80;23274;-88
2021/08/08 07:32:35;;;;;;;2.65;2.00;;;;;;;19.97;74.68;100414.24;1767803;80;21024;-88
2021/08/08 07:35:03;;;;;;;5.83;2.50;;;;;;;20.00;74.68;100414.62;1764276;80;21102;-88
2021/08/08 07:37:30;;;;;;;3.77;2.22;;;;;;;20.08;74.69;100414.47;1775062;80;21490;-88
2021/08/08 07:39:56;;;;;;;5.35;2.90;;;;;;;20.18;74.79;100406.72;1776158;80;21109;-88
2021/08/08 07:42:23;;;;;;;4.28;2.50;;;;;;;20.32;74.72;100398.41;1775838;80;22469;-88
2021/08/08 07:44:50;;;;;;;6.97;2.17;;;;;;;20.46;74.59;100404.78;1772604;79;21004;-88
2021/08/08 07:47:17;;;;;;;4.50;2.42;;;;;;;20.59;74.49;100407.18;1770194;80;21023;-88
2021/08/08 07:49:43;;;;;;;2.72;2.02;;;;;;;20.74;74.36;100408.67;1777227;80;21508;-88
2021/08/08 07:52:10;;;;;;;5.08;2.05;;;;;;;20.89;74.18;100410.13;1772185;79;21030;-89
2021/08/08 07:54:37;;;;;;;3.55;1.92;;;;;;;21.04;73.95;100407.55;1773548;80;21786;-88
2021/08/08 07:57:04;;;;;;;4.75;1.90;;;;;;;21.19;73.78;100400.95;1780572;79;21038;-88
2021/08/08 07:59:31;;;;;;;2.90;1.70;;;;;;;21.32;73.50;100410.43;1776608;79;21376;-88
2021/08/08 08:01:58;;;;;;;4.65;2.17;;;;;;;21.48;73.39;100411.41;1776998;79;21022;-88
2021/08/08 08:04:25;;;;;;;5.50;1.77;;;;;;;21.69;73.44;100411.31;1776217;80;20992;-88
2021/08/08 08:06:52;;;;;;;5.65;2.30;;;;;;;21.95;73.06;100417.31;1773433;80;21779;-87
2021/08/08 08:09:18;;;;;;;5.37;1.82;;;;;;;22.15;72.67;100422.12;1782878;79;21066;-88
2021/08/08 08:11:45;;;;;;;5.10;2.00;;;;;;;22.31;72.40;100422.59;1783515;79;21516;-88
2021/08/08 08:14:12;;;;;;;4.58;2.30;;;;;;;22.96;72.23;100409.93;1759289;80;22391;-88
2021/08/08 08:16:39;;;;;;;3.62;2.10;;;;;;;22.96;72.23;100409.93;1772864;80;21082;-89
2021/08/08 08:19:06;;;;;;;3.25;1.90;;;;;;;23.82;71.52;100406.64;1768756;80;22473;-88
2021/08/08 08:21:33;;;;;;;3.10;1.70;;;;;;;23.82;71.52;100406.64;1766123;80;21094;-89
2021/08/08 08:23:59;;;;;;;2.33;1.75;;;;;;;24.22;70.27;100404.32;1764268;81;21600;-89
2021/08/08 08:26:26;;;;;;;2.08;1.80;;;;;;;24.47;69.74;100397.53;1774912;80;21062;-88
2021/08/08 08:28:53;;;;;;;2.60;2.27;;;;;;;24.54;68.90;100396.41;1775516;79;21074;-88
2021/08/08 08:31:20;;;;;;;2.33;1.95;;;;;;;24.54;68.28;100397.75;1769072;79;21738;-89
2021/08/08 08:33:47;;;;;;;4.78;1.75;;;;;;;24.48;68.17;100403.82;1765108;80;21074;-89
2021/08/08 08:36:13;;;;;;;1.70;1.57;;;;;;;24.45;68.21;100416.42;1782990;80;21112;-89
2021/08/08 08:38:40;;;;;;;1.60;1.42;;;;;;;24.52;68.04;100406.35;1772299;80;21071;-89
2021/08/08 08:41:07;;;;;;;2.27;1.50;;;;;;;24.58;67.49;100404.76;1783400;79;21074;-88
2021/08/08 08:43:34;;;;;;;2.40;1.98;;;;;;;24.59;67.15;100405.66;1784790;80;21807;-88
2021/08/08 08:46:01;;;;;;;2.80;1.40;;;;;;;24.68;67.13;100399.89;1784908;80;21089;-89
2021/08/08 08:48:28;;;;;;;2.55;1.90;;;;;;;24.84;66.67;100401.52;1784905;80;21057;-89
2021/08/08 08:50:55;;;;;;;2.98;2.33;;;;;;;24.94;65.89;100395.30;1784812;80;21050;-89
2021/08/08 08:53:22;;;;;;;3.33;2.00;;;;;;;25.00;65.26;100397.73;1767794;80;20952;-89
2021/08/08 08:55:50;;;;;;;2.52;2.17;;;;;;;25.06;64.96;100404.69;1765022;80;21749;-89
2021/08/08 08:58:17;;;;;;;2.58;2.10;;;;;;;25.14;64.61;100395.36;1771363;80;21135;-88
2021/08/08 09:00:44;;;;;;;2.85;1.70;;;;;;;25.33;64.53;100404.07;1782556;80;21010;-89
2021/08/08 09:03:10;;;;;;;2.25;1.80;;;;;;;25.59;64.41;100398.92;1770524;80;21517;-88
2021/08/08 09:05:37;;;;;;;3.50;1.82;;;;;;;25.92;64.34;100399.31;1764654;81;21043;-88
2021/08/08 09:08:05;;;;;;;2.42;2.00;;;;;;;26.17;63.63;100406.30;1770792;80;21815;-88
2021/08/08 09:10:32;;;;;;;2.87;1.95;;;;;;;26.34;63.06;100394.25;1743515;81;21579;-88
2021/08/08 09:13:02;;;;;;;1.95;1.72;;;;;;;26.46;62.59;100394.62;1783489;80;21026;-88
2021/08/08 09:15:44;;;;;;;2.00;1.60;;;;;;;26.58;61.99;100400.33;1779775;80;21401;-88
2021/08/08 09:18:21;;;;;;;2.22;1.70;;;;;;;26.71;61.29;100395.27;1776116;80;21034;-88
2021/08/08 09:20:49;;;;;;;2.42;1.82;;;;;;;26.71;60.88;100406.51;1770360;80;21790;-89
2021/08/08 09:23:17;;;;;;;1.72;1.45;;;;;;;26.65;60.58;100409.51;1782665;79;21022;-88
2021/08/08 09:25:54;;;;;;;3.10;2.10;;;;;;;26.56;60.34;100418.42;1768166;79;21004;-88
2021/08/08 09:28:29;;;;;;;2.12;1.60;;;;;;;26.37;59.85;100408.06;1775936;78;21592;-88
2021/08/08 09:30:56;;;;;;;1.57;1.42;;;;;;;26.28;60.07;100400.42;1780307;80;21018;-88
2021/08/08 09:33:23;;;;;;;3.35;2.05;;;;;;;26.37;59.99;100414.80;1765873;80;22610;-89
2021/08/08 09:35:56;;;;;;;3.30;2.00;;;;;;;26.51;59.98;100416.41;1765282;80;21623;-88
2021/08/08 09:38:23;;;;;;;2.72;1.72;;;;;;;26.66;59.75;100425.64;1772560;80;27109;-88
2021/08/08 09:41:01;;;;;;;1.55;1.45;;;;;;;26.83;59.47;100427.54;1776080;80;21082;-89
2021/08/08 09:43:29;;;;;;;2.70;2.05;;;;;;;26.84;58.54;100433.80;1770520;80;21086;-88
2021/08/08 09:45:55;;;;;;;2.02;1.85;;;;;;;26.76;58.26;100441.80;1784758;79;21760;-89
2021/08/08 09:48:35;;;;;;;1.98;1.77;;;;;;;26.61;58.03;100436.25;1777699;79;21517;-89
2021/08/08 09:51:05;;;;;;;2.55;1.98;;;;;;;26.44;58.00;100429.77;1781822;80;21018;-89
2021/08/08 09:53:32;;;;;;;2.00;1.75;;;;;;;26.15;57.85;100444.61;1784564;80;22442;-89
2021/08/08 09:55:59;;;;;;;4.75;1.98;;;;;;;25.85;58.20;100452.20;1779254;80;21046;-88
2021/08/08 09:58:27;;;;;;;2.75;1.77;;;;;;;25.71;58.49;100455.47;1784499;80;21780;-88
2021/08/08 10:00:58;;;;;;;3.40;2.05;;;;;;;25.69;58.87;100458.22;1769683;80;21050;-89
2021/08/08 10:03:25;;;;;;;2.12;1.87;;;;;;;25.78;59.10;100459.17;1785942;80;21070;-88
2021/08/08 10:05:54;;;;;;;2.22;1.85;;;;;;;25.90;59.03;100468.58;1769106;80;21557;-88
2021/08/08 10:08:23;;;;;;;1.95;1.82;;;;;;;26.05;58.72;100476.96;1768043;81;21265;-87
2021/08/08 10:10:52;;;;;;;2.47;2.20;;;;;;;26.12;58.46;100482.50;1775133;80;21799;-89
2021/08/08 10:13:57;;;;;;;2.10;1.80;;;;;;;26.18;58.25;100479.07;1780275;80;21006;-89
2021/08/08 10:16:22;;;;;;;3.90;2.20;;;;;;;26.28;57.89;100475.97;1773148;79;21042;-89
2021/08/08 10:18:56;;;;;;;3.83;3.15;;;;;;;26.35;57.50;100473.37;1765274;80;21464;-89
2021/08/08 10:21:23;;;;;;;5.85;4.90;;;;;;;26.28;56.93;100468.73;1784023;79;20991;-88
2021/08/08 10:23:52;;;;;;;5.78;5.00;;;;;;;26.24;56.88;100478.38;1772264;80;21808;-88
2021/08/08 10:26:19;;;;;;;4.95;4.00;;;;;;;26.27;56.96;100480.94;1781264;80;21007;-89
2021/08/08 10:28:48;;;;;;;2.80;2.60;;;;;;;26.35;56.67;100486.41;1781984;80;21051;-88
2021/08/08 10:31:17;;;;;;;2.70;2.37;;;;;;;26.50;56.53;100482.14;1765152;80;21023;-88
2021/08/08 10:33:48;;;;;;;3.47;3.00;;;;;;;26.58;56.19;100486.70;1772591;79;20983;-88
2021/08/08 10:36:26;;;;;;;2.98;2.17;;;;;;;26.61;56.14;100491.59;1770368;79;22891;-88
2021/08/08 10:38:56;;;;;;;2.70;2.20;;;;;;;26.62;55.83;100490.66;1771529;80;21040;-89
2021/08/08 10:41:23;;;;;;;2.25;2.02;;;;;;;26.51;55.69;100499.20;1774229;80;21078;-89
2021/08/08 10:43:50;;;;;;;2.58;2.15;;;;;;;26.55;55.70;100489.53;1775972;79;21237;-89
2021/08/08 10:46:17;;;;;;;1.90;1.80;;;;;;;26.70;55.40;100484.42;1770141;80;21529;-89
2021/08/08 10:48:44;;;;;;;1.92;1.67;;;;;;;26.73;55.12;100495.96;1774199;79;21696;-89
2021/08/08 10:51:23;;;;;;;2.67;1.67;;;;;;;26.69;54.76;100479.95;1765494;81;21004;-89
2021/08/08 10:54:01;;;;;;;2.35;1.77;;;;;;;26.67;54.59;100489.50;1767684;80;21093;-89
2021/08/08 10:56:47;;;;;;;4.12;2.10;;;;;;;26.61;54.34;100490.24;1770913;79;21489;-89
2021/08/08 10:59:22;;;;;;;4.85;2.58;;;;;;;26.55;54.31;100496.28;1763196;81;21509;-89
2021/08/08 11:02:07;;;;;;;2.20;2.00;;;;;;;26.61;54.41;100496.99;1781007;80;22572;-89
2021/08/08 11:04:34;;;;;;;2.20;1.57;;;;;;;26.74;54.59;100498.17;1764439;80;21557;-90
2021/08/08 11:07:03;;;;;;;2.00;1.80;;;;;;;26.91;54.34;100499.61;1773567;78;21003;-89
2021/08/08 11:09:34;;;;;;;2.95;2.35;;;;;;;27.14;54.20;100495.84;1784537;79;21249;-89
2021/08/08 11:12:01;;;;;;;6.65;3.47;;;;;;;27.39;53.50;100493.80;1784544;80;21026;-89
2021/08/08 11:14:27;;;;;;;4.83;3.83;;;;;;;27.53;53.43;100499.38;1773469;80;22599;-89
2021/08/08 11:17:05;;;;;;;8.88;5.42;;;;;;;27.64;53.20;100497.50;1781737;80;21540;-90
2021/08/08 11:19:40;;;;;;;5.60;2.70;;;;;;;27.78;53.21;100499.05;1761807;81;21063;-89
2021/08/08 11:22:15;;;;;;;2.98;2.12;;;;;;;27.93;52.47;100504.19;1765028;81;20996;-90
2021/08/08 11:24:44;;;;;;;2.85;1.80;;;;;;;27.99;51.97;100509.75;1765124;80;21505;-89
2021/08/08 11:27:11;;;;;;;4.65;2.12;;;;;;;28.02;51.66;100522.62;1765252;80;22169;-89